sensor_id;sensor_type;location;lat;lon;timestamp;P1;durP1;ratioP1;P2;durP2;ratioP2
21927;SDS011;11128;51.096;17.190;2022-10-18T00:01:38;8.55;;;5.95;;
21927;SDS011;11128;51.096;17.190;2022-10-18T00:06:39;11.70;;;6.88;;
21927;SDS011;11128;51.096;17.190;2022-10-18T00:11:41;9.07;;;6.00;;
21927;SDS011;11128;51.096;17.190;2022-10-18T00:16:43;10.25;;;6.05;;
21927;SDS011;11128;51.096;17.190;2022-10-18T00:21:45;10.02;;;6.13;;
21927;SDS011;11128;51.096;17.190;2022-10-18T00:26:50;11.07;;;6.78;;
21927;SDS011;11128;51.096;17.190;2022-10-18T00:31:51;15.63;;;8.07;;
21927;SDS011;11128;51.096;17.190;2022-10-18T00:36:53;12.68;;;7.47;;
21927;SDS011;11128;51.096;17.190;2022-10-18T00:41:56;11.60;;;7.20;;
21927;SDS011;11128;51.096;17.190;2022-10-18T00:46:59;12.55;;;7.10;;
21927;SDS011;11128;51.096;17.190;2022-10-18T00:52:06;11.65;;;6.18;;
21927;SDS011;11128;51.096;17.190;2022-10-18T00:57:17;13.10;;;6.30;;
21927;SDS011;11128;51.096;17.190;2022-10-18T01:02:19;13.48;;;6.22;;
21927;SDS011;11128;51.096;17.190;2022-10-18T01:12:43;9.88;;;6.22;;
21927;SDS011;11128;51.096;17.190;2022-10-18T01:34:03;10.05;;;5.97;;
21927;SDS011;11128;51.096;17.190;2022-10-18T01:39:10;9.20;;;6.20;;
21927;SDS011;11128;51.096;17.190;2022-10-18T01:44:16;11.07;;;6.05;;
21927;SDS011;11128;51.096;17.190;2022-10-18T01:49:21;9.93;;;6.15;;
21927;SDS011;11128;51.096;17.190;2022-10-18T01:54:30;8.23;;;5.88;;
21927;SDS011;11128;51.096;17.190;2022-10-18T02:05:00;12.05;;;5.75;;
21927;SDS011;11128;51.096;17.190;2022-10-18T02:10:12;8.18;;;5.05;;
21927;SDS011;11128;51.096;17.190;2022-10-18T02:15:22;10.77;;;6.38;;
21927;SDS011;11128;51.096;17.190;2022-10-18T02:20:27;10.63;;;6.55;;
21927;SDS011;11128;51.096;17.190;2022-10-18T02:25:32;11.55;;;5.95;;
21927;SDS011;11128;51.096;17.190;2022-10-18T02:30:36;8.65;;;5.60;;
21927;SDS011;11128;51.096;17.190;2022-10-18T02:35:45;10.38;;;6.15;;
21927;SDS011;11128;51.096;17.190;2022-10-18T02:40:50;10.15;;;5.53;;
21927;SDS011;11128;51.096;17.190;2022-10-18T02:45:51;10.80;;;6.45;;
21927;SDS011;11128;51.096;17.190;2022-10-18T02:50:53;12.05;;;6.00;;
21927;SDS011;11128;51.096;17.190;2022-10-18T02:55:54;11.10;;;6.00;;
21927;SDS011;11128;51.096;17.190;2022-10-18T03:00:56;10.85;;;5.22;;
21927;SDS011;11128;51.096;17.190;2022-10-18T03:05:58;11.23;;;6.00;;
21927;SDS011;11128;51.096;17.190;2022-10-18T03:10:59;12.70;;;5.95;;
21927;SDS011;11128;51.096;17.190;2022-10-18T03:16:00;10.48;;;6.10;;
21927;SDS011;11128;51.096;17.190;2022-10-18T03:21:05;9.98;;;5.63;;
21927;SDS011;11128;51.096;17.190;2022-10-18T03:26:08;10.02;;;5.80;;
21927;SDS011;11128;51.096;17.190;2022-10-18T03:31:10;10.25;;;5.80;;
21927;SDS011;11128;51.096;17.190;2022-10-18T03:36:11;9.23;;;5.55;;
21927;SDS011;11128;51.096;17.190;2022-10-18T03:41:13;12.05;;;5.78;;
21927;SDS011;11128;51.096;17.190;2022-10-18T03:46:14;9.90;;;5.88;;
21927;SDS011;11128;51.096;17.190;2022-10-18T03:51:16;12.70;;;6.00;;
21927;SDS011;11128;51.096;17.190;2022-10-18T03:56:17;8.23;;;5.75;;
21927;SDS011;11128;51.096;17.190;2022-10-18T04:01:19;8.50;;;5.63;;
21927;SDS011;11128;51.096;17.190;2022-10-18T04:06:21;10.95;;;6.13;;
21927;SDS011;11128;51.096;17.190;2022-10-18T04:11:22;9.57;;;5.63;;
21927;SDS011;11128;51.096;17.190;2022-10-18T04:16:24;10.45;;;6.22;;
21927;SDS011;11128;51.096;17.190;2022-10-18T04:21:25;14.18;;;6.00;;
21927;SDS011;11128;51.096;17.190;2022-10-18T04:26:27;15.93;;;5.35;;
21927;SDS011;11128;51.096;17.190;2022-10-18T04:31:28;8.93;;;5.78;;
21927;SDS011;11128;51.096;17.190;2022-10-18T04:36:30;9.73;;;5.70;;
21927;SDS011;11128;51.096;17.190;2022-10-18T04:41:32;15.32;;;6.07;;
21927;SDS011;11128;51.096;17.190;2022-10-18T04:46:33;14.23;;;6.28;;
21927;SDS011;11128;51.096;17.190;2022-10-18T04:51:35;10.15;;;5.32;;
21927;SDS011;11128;51.096;17.190;2022-10-18T04:56:36;8.80;;;5.47;;
21927;SDS011;11128;51.096;17.190;2022-10-18T05:01:38;14.40;;;5.80;;
21927;SDS011;11128;51.096;17.190;2022-10-18T05:06:40;11.32;;;5.60;;
21927;SDS011;11128;51.096;17.190;2022-10-18T05:11:41;14.75;;;6.05;;
21927;SDS011;11128;51.096;17.190;2022-10-18T05:16:43;10.38;;;5.70;;
21927;SDS011;11128;51.096;17.190;2022-10-18T05:21:44;12.60;;;6.15;;
21927;SDS011;11128;51.096;17.190;2022-10-18T05:26:46;13.93;;;7.07;;
21927;SDS011;11128;51.096;17.190;2022-10-18T05:31:47;13.68;;;6.75;;
21927;SDS011;11128;51.096;17.190;2022-10-18T05:36:49;8.80;;;6.30;;
21927;SDS011;11128;51.096;17.190;2022-10-18T05:41:52;17.95;;;6.57;;
21927;SDS011;11128;51.096;17.190;2022-10-18T05:46:53;16.23;;;7.38;;
21927;SDS011;11128;51.096;17.190;2022-10-18T05:51:55;16.25;;;7.22;;
21927;SDS011;11128;51.096;17.190;2022-10-18T05:56:57;15.32;;;6.80;;
21927;SDS011;11128;51.096;17.190;2022-10-18T06:01:58;13.10;;;7.32;;
21927;SDS011;11128;51.096;17.190;2022-10-18T06:06:59;14.52;;;7.70;;
21927;SDS011;11128;51.096;17.190;2022-10-18T06:12:01;17.17;;;7.90;;
21927;SDS011;11128;51.096;17.190;2022-10-18T06:17:04;16.95;;;7.63;;
21927;SDS011;11128;51.096;17.190;2022-10-18T06:22:06;15.80;;;6.85;;
21927;SDS011;11128;51.096;17.190;2022-10-18T06:27:07;12.18;;;7.22;;
21927;SDS011;11128;51.096;17.190;2022-10-18T06:32:09;14.77;;;8.05;;
21927;SDS011;11128;51.096;17.190;2022-10-18T06:37:11;17.65;;;8.52;;
21927;SDS011;11128;51.096;17.190;2022-10-18T06:42:12;18.08;;;9.10;;
21927;SDS011;11128;51.096;17.190;2022-10-18T06:47:14;19.95;;;9.70;;
21927;SDS011;11128;51.096;17.190;2022-10-18T06:52:16;16.13;;;8.43;;
21927;SDS011;11128;51.096;17.190;2022-10-18T06:57:20;22.55;;;9.13;;
21927;SDS011;11128;51.096;17.190;2022-10-18T07:02:22;16.98;;;8.45;;
21927;SDS011;11128;51.096;17.190;2022-10-18T07:07:24;17.45;;;7.38;;
21927;SDS011;11128;51.096;17.190;2022-10-18T07:12:26;16.05;;;8.63;;
21927;SDS011;11128;51.096;17.190;2022-10-18T07:17:27;13.88;;;7.45;;
21927;SDS011;11128;51.096;17.190;2022-10-18T07:22:30;15.07;;;7.88;;
21927;SDS011;11128;51.096;17.190;2022-10-18T07:27:41;14.85;;;7.80;;
21927;SDS011;11128;51.096;17.190;2022-10-18T07:32:43;10.95;;;6.90;;
21927;SDS011;11128;51.096;17.190;2022-10-18T07:37:45;17.42;;;7.10;;
21927;SDS011;11128;51.096;17.190;2022-10-18T07:42:47;12.27;;;6.82;;
21927;SDS011;11128;51.096;17.190;2022-10-18T07:47:53;11.43;;;7.13;;
21927;SDS011;11128;51.096;17.190;2022-10-18T07:52:55;11.23;;;7.95;;
21927;SDS011;11128;51.096;17.190;2022-10-18T07:57:58;14.05;;;7.63;;
21927;SDS011;11128;51.096;17.190;2022-10-18T08:03:01;11.73;;;6.50;;
21927;SDS011;11128;51.096;17.190;2022-10-18T08:08:03;12.27;;;6.55;;
21927;SDS011;11128;51.096;17.190;2022-10-18T08:13:05;13.63;;;7.28;;
21927;SDS011;11128;51.096;17.190;2022-10-18T08:18:07;10.73;;;6.65;;
21927;SDS011;11128;51.096;17.190;2022-10-18T08:23:10;12.77;;;7.85;;
21927;SDS011;11128;51.096;17.190;2022-10-18T08:28:12;11.75;;;7.35;;
21927;SDS011;11128;51.096;17.190;2022-10-18T08:33:14;13.02;;;6.50;;
21927;SDS011;11128;51.096;17.190;2022-10-18T08:38:16;15.98;;;6.93;;
21927;SDS011;11128;51.096;17.190;2022-10-18T08:48:33;11.57;;;6.63;;
21927;SDS011;11128;51.096;17.190;2022-10-18T08:53:39;10.93;;;7.35;;
21927;SDS011;11128;51.096;17.190;2022-10-18T08:58:51;10.77;;;7.05;;
21927;SDS011;11128;51.096;17.190;2022-10-18T09:34:59;13.57;;;7.43;;
21927;SDS011;11128;51.096;17.190;2022-10-18T09:45:24;8.82;;;6.22;;
21927;SDS011;11128;51.096;17.190;2022-10-18T09:50:39;12.05;;;6.90;;
21927;SDS011;11128;51.096;17.190;2022-10-18T10:01:02;13.75;;;6.93;;
21927;SDS011;11128;51.096;17.190;2022-10-18T10:16:32;11.90;;;7.18;;
21927;SDS011;11128;51.096;17.190;2022-10-18T10:21:34;9.00;;;6.80;;
21927;SDS011;11128;51.096;17.190;2022-10-18T10:26:39;11.32;;;6.35;;
21927;SDS011;11128;51.096;17.190;2022-10-18T10:31:41;12.38;;;6.53;;
21927;SDS011;11128;51.096;17.190;2022-10-18T10:36:49;11.43;;;6.72;;
21927;SDS011;11128;51.096;17.190;2022-10-18T10:41:56;10.23;;;6.53;;
21927;SDS011;11128;51.096;17.190;2022-10-18T10:46:59;10.93;;;6.90;;
21927;SDS011;11128;51.096;17.190;2022-10-18T10:52:01;13.38;;;7.57;;
21927;SDS011;11128;51.096;17.190;2022-10-18T11:02:32;13.23;;;6.72;;
21927;SDS011;11128;51.096;17.190;2022-10-18T11:07:41;10.90;;;6.80;;
21927;SDS011;11128;51.096;17.190;2022-10-18T11:12:46;13.20;;;6.95;;
21927;SDS011;11128;51.096;17.190;2022-10-18T11:23:12;11.32;;;7.45;;
21927;SDS011;11128;51.096;17.190;2022-10-18T11:28:23;10.98;;;7.30;;
21927;SDS011;11128;51.096;17.190;2022-10-18T11:40:30;10.90;;;7.10;;
21927;SDS011;11128;51.096;17.190;2022-10-18T11:51:19;9.10;;;6.13;;
21927;SDS011;11128;51.096;17.190;2022-10-18T11:56:09;10.45;;;7.10;;
21927;SDS011;11128;51.096;17.190;2022-10-18T12:01:50;9.50;;;5.95;;
21927;SDS011;11128;51.096;17.190;2022-10-18T12:07:12;8.98;;;6.22;;
21927;SDS011;11128;51.096;17.190;2022-10-18T12:22:33;9.88;;;7.30;;
21927;SDS011;11128;51.096;17.190;2022-10-18T12:27:38;10.88;;;6.13;;
21927;SDS011;11128;51.096;17.190;2022-10-18T12:32:44;10.07;;;6.57;;
21927;SDS011;11128;51.096;17.190;2022-10-18T12:43:26;9.75;;;6.38;;
21927;SDS011;11128;51.096;17.190;2022-10-18T12:48:59;10.80;;;6.43;;
21927;SDS011;11128;51.096;17.190;2022-10-18T12:54:08;10.35;;;6.20;;
21927;SDS011;11128;51.096;17.190;2022-10-18T13:09:33;9.77;;;6.22;;
21927;SDS011;11128;51.096;17.190;2022-10-18T13:41:26;7.00;;;5.25;;
21927;SDS011;11128;51.096;17.190;2022-10-18T13:51:45;10.57;;;6.03;;
21927;SDS011;11128;51.096;17.190;2022-10-18T14:02:18;7.40;;;6.00;;
21927;SDS011;11128;51.096;17.190;2022-10-18T14:07:28;10.55;;;6.80;;
21927;SDS011;11128;51.096;17.190;2022-10-18T14:12:38;12.98;;;7.53;;
21927;SDS011;11128;51.096;17.190;2022-10-18T14:17:48;15.88;;;7.30;;
21927;SDS011;11128;51.096;17.190;2022-10-18T14:28:27;12.63;;;7.43;;
21927;SDS011;11128;51.096;17.190;2022-10-18T14:33:39;15.35;;;8.90;;
21927;SDS011;11128;51.096;17.190;2022-10-18T14:38:49;19.10;;;10.73;;
21927;SDS011;11128;51.096;17.190;2022-10-18T14:43:52;19.50;;;11.60;;
21927;SDS011;11128;51.096;17.190;2022-10-18T14:49:10;14.07;;;9.65;;
21927;SDS011;11128;51.096;17.190;2022-10-18T14:54:14;12.13;;;7.65;;
21927;SDS011;11128;51.096;17.190;2022-10-18T14:59:19;12.73;;;8.38;;
21927;SDS011;11128;51.096;17.190;2022-10-18T15:04:23;10.95;;;7.82;;
21927;SDS011;11128;51.096;17.190;2022-10-18T15:09:33;8.43;;;5.07;;
21927;SDS011;11128;51.096;17.190;2022-10-18T15:14:36;4.25;;;3.30;;
21927;SDS011;11128;51.096;17.190;2022-10-18T15:19:52;3.80;;;1.92;;
21927;SDS011;11128;51.096;17.190;2022-10-18T15:30:06;2.00;;;1.80;;
21927;SDS011;11128;51.096;17.190;2022-10-18T15:35:18;2.45;;;1.70;;
21927;SDS011;11128;51.096;17.190;2022-10-18T15:40:34;3.45;;;2.20;;
21927;SDS011;11128;51.096;17.190;2022-10-18T15:45:39;3.25;;;1.80;;
21927;SDS011;11128;51.096;17.190;2022-10-18T16:01:17;2.20;;;1.33;;
21927;SDS011;11128;51.096;17.190;2022-10-18T16:06:22;1.75;;;1.63;;
21927;SDS011;11128;51.096;17.190;2022-10-18T16:11:24;4.03;;;1.60;;
21927;SDS011;11128;51.096;17.190;2022-10-18T16:16:27;2.47;;;1.63;;
21927;SDS011;11128;51.096;17.190;2022-10-18T16:21:33;4.55;;;2.17;;
21927;SDS011;11128;51.096;17.190;2022-10-18T16:26:37;2.42;;;1.77;;
21927;SDS011;11128;51.096;17.190;2022-10-18T16:31:39;6.65;;;3.47;;
21927;SDS011;11128;51.096;17.190;2022-10-18T16:36:41;13.90;;;6.03;;
21927;SDS011;11128;51.096;17.190;2022-10-18T16:41:43;2.72;;;2.05;;
21927;SDS011;11128;51.096;17.190;2022-10-18T16:46:46;3.03;;;2.10;;
21927;SDS011;11128;51.096;17.190;2022-10-18T16:51:48;2.97;;;1.77;;
21927;SDS011;11128;51.096;17.190;2022-10-18T16:56:50;2.00;;;1.75;;
21927;SDS011;11128;51.096;17.190;2022-10-18T17:01:52;17.58;;;2.55;;
21927;SDS011;11128;51.096;17.190;2022-10-18T17:06:54;4.95;;;2.75;;
21927;SDS011;11128;51.096;17.190;2022-10-18T17:11:58;6.22;;;3.70;;
21927;SDS011;11128;51.096;17.190;2022-10-18T17:17:00;4.25;;;3.28;;
21927;SDS011;11128;51.096;17.190;2022-10-18T17:22:02;6.13;;;3.97;;
21927;SDS011;11128;51.096;17.190;2022-10-18T17:27:04;7.80;;;3.90;;
21927;SDS011;11128;51.096;17.190;2022-10-18T17:32:06;8.88;;;3.97;;
21927;SDS011;11128;51.096;17.190;2022-10-18T17:37:08;7.93;;;4.45;;
21927;SDS011;11128;51.096;17.190;2022-10-18T17:42:10;7.82;;;5.13;;
21927;SDS011;11128;51.096;17.190;2022-10-18T17:47:12;8.90;;;4.85;;
21927;SDS011;11128;51.096;17.190;2022-10-18T17:52:14;8.38;;;4.82;;
21927;SDS011;11128;51.096;17.190;2022-10-18T17:57:16;6.57;;;4.60;;
21927;SDS011;11128;51.096;17.190;2022-10-18T18:02:18;7.70;;;3.80;;
21927;SDS011;11128;51.096;17.190;2022-10-18T18:07:20;6.72;;;3.70;;
21927;SDS011;11128;51.096;17.190;2022-10-18T18:12:22;6.72;;;3.83;;
21927;SDS011;11128;51.096;17.190;2022-10-18T18:17:23;6.13;;;3.92;;
21927;SDS011;11128;51.096;17.190;2022-10-18T18:22:28;6.63;;;4.45;;
21927;SDS011;11128;51.096;17.190;2022-10-18T18:27:30;7.32;;;4.20;;
21927;SDS011;11128;51.096;17.190;2022-10-18T18:32:32;7.55;;;4.80;;
21927;SDS011;11128;51.096;17.190;2022-10-18T18:37:34;9.90;;;4.80;;
21927;SDS011;11128;51.096;17.190;2022-10-18T18:42:37;7.03;;;4.80;;
21927;SDS011;11128;51.096;17.190;2022-10-18T18:47:39;7.10;;;5.18;;
21927;SDS011;11128;51.096;17.190;2022-10-18T18:52:40;6.72;;;4.65;;
21927;SDS011;11128;51.096;17.190;2022-10-18T18:57:42;7.22;;;4.57;;
21927;SDS011;11128;51.096;17.190;2022-10-18T19:02:44;8.00;;;4.88;;
21927;SDS011;11128;51.096;17.190;2022-10-18T19:07:47;7.88;;;4.78;;
21927;SDS011;11128;51.096;17.190;2022-10-18T19:12:48;7.10;;;4.93;;
21927;SDS011;11128;51.096;17.190;2022-10-18T19:17:50;11.35;;;5.00;;
21927;SDS011;11128;51.096;17.190;2022-10-18T19:22:52;7.55;;;5.45;;
21927;SDS011;11128;51.096;17.190;2022-10-18T19:27:53;7.70;;;5.03;;
21927;SDS011;11128;51.096;17.190;2022-10-18T19:32:55;9.90;;;5.70;;
21927;SDS011;11128;51.096;17.190;2022-10-18T19:38:04;7.55;;;5.60;;
21927;SDS011;11128;51.096;17.190;2022-10-18T19:43:05;9.45;;;5.90;;
21927;SDS011;11128;51.096;17.190;2022-10-18T19:48:07;9.43;;;5.95;;
21927;SDS011;11128;51.096;17.190;2022-10-18T19:53:08;12.23;;;6.55;;
21927;SDS011;11128;51.096;17.190;2022-10-18T19:58:10;11.73;;;7.80;;
21927;SDS011;11128;51.096;17.190;2022-10-18T20:03:12;13.10;;;7.05;;
21927;SDS011;11128;51.096;17.190;2022-10-18T20:08:16;11.90;;;7.55;;
21927;SDS011;11128;51.096;17.190;2022-10-18T20:13:18;11.55;;;7.13;;
21927;SDS011;11128;51.096;17.190;2022-10-18T20:18:20;10.80;;;6.80;;
21927;SDS011;11128;51.096;17.190;2022-10-18T20:23:21;9.23;;;6.88;;
21927;SDS011;11128;51.096;17.190;2022-10-18T20:28:23;11.68;;;5.78;;
21927;SDS011;11128;51.096;17.190;2022-10-18T20:33:25;10.68;;;6.55;;
21927;SDS011;11128;51.096;17.190;2022-10-18T20:38:28;6.60;;;5.03;;
21927;SDS011;11128;51.096;17.190;2022-10-18T20:43:31;6.50;;;5.13;;
21927;SDS011;11128;51.096;17.190;2022-10-18T20:48:33;7.35;;;4.82;;
21927;SDS011;11128;51.096;17.190;2022-10-18T20:53:35;8.23;;;5.03;;
21927;SDS011;11128;51.096;17.190;2022-10-18T20:58:38;8.32;;;4.85;;
21927;SDS011;11128;51.096;17.190;2022-10-18T21:03:41;9.77;;;4.97;;
21927;SDS011;11128;51.096;17.190;2022-10-18T21:08:44;6.45;;;4.68;;
21927;SDS011;11128;51.096;17.190;2022-10-18T21:13:50;7.03;;;5.25;;
21927;SDS011;11128;51.096;17.190;2022-10-18T21:18:52;12.13;;;5.72;;
21927;SDS011;11128;51.096;17.190;2022-10-18T21:23:54;10.73;;;7.05;;
21927;SDS011;11128;51.096;17.190;2022-10-18T21:28:56;13.70;;;7.30;;
21927;SDS011;11128;51.096;17.190;2022-10-18T21:34:00;18.65;;;9.80;;
21927;SDS011;11128;51.096;17.190;2022-10-18T21:39:05;15.23;;;10.07;;
21927;SDS011;11128;51.096;17.190;2022-10-18T21:44:09;15.70;;;10.25;;
21927;SDS011;11128;51.096;17.190;2022-10-18T21:49:12;13.93;;;9.43;;
21927;SDS011;11128;51.096;17.190;2022-10-18T21:54:14;15.30;;;9.27;;
21927;SDS011;11128;51.096;17.190;2022-10-18T21:59:16;17.55;;;9.85;;
21927;SDS011;11128;51.096;17.190;2022-10-18T22:04:21;14.07;;;9.55;;
21927;SDS011;11128;51.096;17.190;2022-10-18T22:09:24;13.98;;;8.98;;
21927;SDS011;11128;51.096;17.190;2022-10-18T22:14:26;12.40;;;8.27;;
21927;SDS011;11128;51.096;17.190;2022-10-18T22:19:27;14.85;;;8.77;;
21927;SDS011;11128;51.096;17.190;2022-10-18T22:24:29;14.77;;;8.68;;
21927;SDS011;11128;51.096;17.190;2022-10-18T22:29:31;13.73;;;8.57;;
21927;SDS011;11128;51.096;17.190;2022-10-18T22:34:32;13.38;;;8.68;;
21927;SDS011;11128;51.096;17.190;2022-10-18T22:39:34;14.73;;;9.02;;
21927;SDS011;11128;51.096;17.190;2022-10-18T22:44:35;12.50;;;7.37;;
21927;SDS011;11128;51.096;17.190;2022-10-18T22:49:37;11.70;;;7.03;;
21927;SDS011;11128;51.096;17.190;2022-10-18T22:54:38;10.50;;;7.07;;
21927;SDS011;11128;51.096;17.190;2022-10-18T22:59:40;9.68;;;6.97;;
21927;SDS011;11128;51.096;17.190;2022-10-18T23:04:42;10.80;;;6.25;;
21927;SDS011;11128;51.096;17.190;2022-10-18T23:09:44;9.80;;;6.55;;
21927;SDS011;11128;51.096;17.190;2022-10-18T23:14:45;13.98;;;6.75;;
21927;SDS011;11128;51.096;17.190;2022-10-18T23:19:47;10.35;;;6.25;;
21927;SDS011;11128;51.096;17.190;2022-10-18T23:24:48;10.75;;;7.35;;
21927;SDS011;11128;51.096;17.190;2022-10-18T23:29:49;9.60;;;6.65;;
21927;SDS011;11128;51.096;17.190;2022-10-18T23:34:51;11.10;;;6.50;;
21927;SDS011;11128;51.096;17.190;2022-10-18T23:39:53;11.48;;;6.68;;
21927;SDS011;11128;51.096;17.190;2022-10-18T23:44:54;12.20;;;6.50;;
21927;SDS011;11128;51.096;17.190;2022-10-18T23:49:56;11.70;;;6.93;;
21927;SDS011;11128;51.096;17.190;2022-10-18T23:54:58;13.90;;;6.97;;
